Time;durP1;ratioP1;P1;durP2;ratioP2;P2;SDS_P1;SDS_P2;PMS_P1;PMS_P2;Temp;Humidity;BMP_temperature;BMP_pressure;BME280_temperature;BME280_humidity;BME280_pressure;Samples;Min_cycle;Max_cycle;Signal;HPM_P1;HPM_P2
2021/12/02 00:00:52;;;;;;;0.80;0.80;;;;;;;;;;4999168;28;20404;-59
2021/12/02 00:03:18;;;;;;;0.88;0.88;;;;;;;;;;4996548;28;20596;-60
2021/12/02 00:05:43;;;;;;;0.90;0.90;;;;;;;;;;5003950;28;20413;-59
2021/12/02 00:08:09;;;;;;;1.30;0.90;;;;;;;;;;4996306;28;20060;-59
2021/12/02 00:10:35;;;;;;;0.93;0.85;;;;;;;;;;5001935;28;20018;-59
2021/12/02 00:13:02;;;;;;;1.30;1.10;;;;;;;;;;5000440;28;20030;-59
2021/12/02 00:15:56;;;;;;;1.77;1.20;;;;;;;;;;5001119;28;20088;-58
2021/12/02 00:21:03;;;;;;;1.10;1.10;;;;;;;;;;5005187;28;20113;-57
2021/12/02 00:23:29;;;;;;;1.20;1.10;;;;;;;;;;5002455;28;20017;-57
2021/12/02 00:26:00;;;;;;;2.08;1.10;;;;;;;;;;5002673;28;20042;-58
2021/12/02 00:28:27;;;;;;;1.30;1.20;;;;;;;;;;4999320;28;20025;-57
2021/12/02 00:30:57;;;;;;;1.17;1.08;;;;;;;;;;5006135;28;20088;-57
2021/12/02 00:33:28;;;;;;;0.80;0.80;;;;;;;;;;5003693;28;20551;-58
2021/12/02 00:35:54;;;;;;;1.33;0.70;;;;;;;;;;5005853;28;20034;-58
2021/12/02 00:38:20;;;;;;;1.08;0.70;;;;;;;;;;5010903;28;20026;-57
2021/12/02 00:40:46;;;;;;;1.00;0.75;;;;;;;;;;5002764;28;20160;-58
2021/12/02 00:43:13;;;;;;;1.15;0.55;;;;;;;;;;4998724;28;20149;-58
2021/12/02 00:45:40;;;;;;;1.70;0.80;;;;;;;;;;5003047;28;20528;-58
2021/12/02 00:48:11;;;;;;;0.50;0.50;;;;;;;;;;5002719;28;20112;-56
2021/12/02 00:50:39;;;;;;;0.60;0.60;;;;;;;;;;4997332;28;20091;-57
2021/12/02 00:53:06;;;;;;;0.85;0.52;;;;;;;;;;4999882;28;20022;-57
2021/12/02 00:55:36;;;;;;;0.73;0.60;;;;;;;;;;5001628;28;20155;-56
2021/12/02 00:58:01;;;;;;;0.57;0.55;;;;;;;;;;5002757;28;20036;-58
2021/12/02 01:00:28;;;;;;;0.73;0.70;;;;;;;;;;4999899;28;20034;-57
2021/12/02 01:02:54;;;;;;;2.45;0.65;;;;;;;;;;5004646;28;20092;-58
2021/12/02 01:05:19;;;;;;;0.68;0.68;;;;;;;;;;5002041;28;20386;-58
2021/12/02 01:07:45;;;;;;;0.70;0.70;;;;;;;;;;4998463;28;20022;-57
2021/12/02 01:10:10;;;;;;;0.98;0.70;;;;;;;;;;5002523;28;20041;-59
2021/12/02 01:12:36;;;;;;;1.55;0.60;;;;;;;;;;5000582;28;20108;-56
2021/12/02 01:15:05;;;;;;;0.70;0.70;;;;;;;;;;5000068;28;20432;-58
2021/12/02 01:17:30;;;;;;;0.50;0.50;;;;;;;;;;5002927;28;20480;-59
2021/12/02 01:19:56;;;;;;;2.20;0.82;;;;;;;;;;5003487;28;20072;-59
2021/12/02 01:22:24;;;;;;;0.80;0.80;;;;;;;;;;4996723;28;20117;-59
2021/12/02 01:24:50;;;;;;;1.30;1.20;;;;;;;;;;4997966;28;20121;-59
2021/12/02 01:27:17;;;;;;;0.50;0.50;;;;;;;;;;5000148;28;20030;-59
2021/12/02 01:29:44;;;;;;;1.75;0.80;;;;;;;;;;5002804;28;20021;-59
2021/12/02 01:32:10;;;;;;;0.60;0.60;;;;;;;;;;4998404;28;20019;-58
2021/12/02 01:34:36;;;;;;;0.68;0.68;;;;;;;;;;5002371;28;20492;-58
2021/12/02 01:37:08;;;;;;;0.68;0.55;;;;;;;;;;5005656;28;20049;-58
2021/12/02 01:39:34;;;;;;;0.60;0.60;;;;;;;;;;4996890;28;20504;-58
2021/12/02 01:42:00;;;;;;;1.27;0.80;;;;;;;;;;5001788;28;20033;-59
2021/12/02 01:44:27;;;;;;;2.38;0.60;;;;;;;;;;5004330;28;20026;-58
2021/12/02 01:46:55;;;;;;;1.10;0.85;;;;;;;;;;5006371;28;20033;-59
2021/12/02 01:49:23;;;;;;;0.88;0.70;;;;;;;;;;5001612;28;20029;-58
2021/12/02 01:51:51;;;;;;;2.28;0.75;;;;;;;;;;5001505;28;20111;-57
2021/12/02 01:54:19;;;;;;;3.05;0.80;;;;;;;;;;5005427;28;20435;-58
2021/12/02 01:57:05;;;;;;;1.90;0.65;;;;;;;;;;5002359;28;20595;-59
2021/12/02 01:59:36;;;;;;;1.40;0.80;;;;;;;;;;4999808;28;20042;-59
2021/12/02 02:02:04;;;;;;;1.65;0.90;;;;;;;;;;5001309;28;20120;-59
2021/12/02 02:04:30;;;;;;;1.48;0.75;;;;;;;;;;4996826;28;20022;-57
2021/12/02 02:07:01;;;;;;;1.15;0.73;;;;;;;;;;5001186;28;20381;-58
2021/12/02 02:09:29;;;;;;;3.38;1.10;;;;;;;;;;4999559;28;20113;-58
2021/12/02 02:11:55;;;;;;;4.35;1.13;;;;;;;;;;4995005;28;21931;-59
2021/12/02 02:14:23;;;;;;;2.97;0.88;;;;;;;;;;5000049;28;20038;-59
2021/12/02 02:16:49;;;;;;;2.15;0.90;;;;;;;;;;4998690;28;20692;-58
2021/12/02 02:19:15;;;;;;;2.78;0.80;;;;;;;;;;4997807;28;20074;-56
2021/12/02 02:21:42;;;;;;;2.47;0.95;;;;;;;;;;5004630;28;20029;-59
2021/12/02 02:24:13;;;;;;;3.10;1.02;;;;;;;;;;4998183;28;20108;-58
2021/12/02 02:26:38;;;;;;;6.93;1.10;;;;;;;;;;4997845;28;20066;-60
2021/12/02 02:29:06;;;;;;;0.68;0.68;;;;;;;;;;4994071;28;20119;-59
2021/12/02 02:31:34;;;;;;;1.92;0.90;;;;;;;;;;5002030;28;20342;-60
2021/12/02 02:33:59;;;;;;;1.00;0.80;;;;;;;;;;5002503;28;20037;-59
2021/12/02 02:36:37;;;;;;;1.50;1.05;;;;;;;;;;5006096;28;20028;-59
2021/12/02 02:39:04;;;;;;;1.67;0.70;;;;;;;;;;4999677;28;20026;-59
2021/12/02 02:41:35;;;;;;;0.77;0.70;;;;;;;;;;5007214;28;20400;-60
2021/12/02 02:44:02;;;;;;;1.13;0.73;;;;;;;;;;4995876;28;20030;-59
2021/12/02 02:46:32;;;;;;;0.63;0.60;;;;;;;;;;4999089;28;20052;-60
2021/12/02 02:48:59;;;;;;;0.50;0.50;;;;;;;;;;4999402;28;20060;-59
2021/12/02 02:51:26;;;;;;;0.90;0.60;;;;;;;;;;4998707;28;20035;-59
2021/12/02 02:53:56;;;;;;;1.17;0.63;;;;;;;;;;5001587;28;20030;-59
2021/12/02 02:56:24;;;;;;;1.00;0.60;;;;;;;;;;5018799;28;20122;-59
2021/12/02 03:09:06;;;;;;;0.85;0.73;;;;;;;;;;4999234;28;20030;-58
2021/12/02 03:11:55;;;;;;;1.15;0.93;;;;;;;;;;5001234;28;20026;-59
2021/12/02 03:14:32;;;;;;;0.73;0.73;;;;;;;;;;5001723;28;20034;-60
2021/12/02 03:16:58;;;;;;;7.35;1.70;;;;;;;;;;5002103;28;20026;-58
2021/12/02 03:19:25;;;;;;;2.80;0.70;;;;;;;;;;4997263;28;20477;-59
2021/12/02 03:21:52;;;;;;;0.82;0.63;;;;;;;;;;5007983;28;20034;-58
2021/12/02 03:24:18;;;;;;;0.65;0.65;;;;;;;;;;5002019;28;20044;-59
2021/12/02 03:26:43;;;;;;;2.33;0.65;;;;;;;;;;5004376;28;20361;-59
2021/12/02 03:29:09;;;;;;;1.33;0.82;;;;;;;;;;5006024;28;20029;-58
2021/12/02 03:31:34;;;;;;;1.17;0.70;;;;;;;;;;5006004;28;20503;-59
2021/12/02 03:34:00;;;;;;;1.55;0.80;;;;;;;;;;5003200;28;20032;-56
2021/12/02 03:36:27;;;;;;;4.88;0.90;;;;;;;;;;5004717;28;20026;-58
2021/12/02 03:38:52;;;;;;;1.15;0.85;;;;;;;;;;5005706;28;20451;-58
2021/12/02 03:41:18;;;;;;;1.83;0.85;;;;;;;;;;5001758;28;20121;-57
2021/12/02 03:43:47;;;;;;;2.00;1.00;;;;;;;;;;5000496;28;20023;-58
2021/12/02 03:46:15;;;;;;;1.85;0.80;;;;;;;;;;5004942;28;20040;-58
2021/12/02 03:48:40;;;;;;;2.90;0.80;;;;;;;;;;5000204;28;20039;-58
2021/12/02 03:51:08;;;;;;;0.80;0.70;;;;;;;;;;5002083;28;20025;-58
2021/12/02 03:53:33;;;;;;;1.48;0.70;;;;;;;;;;5002412;28;20157;-58
2021/12/02 03:56:01;;;;;;;1.98;0.80;;;;;;;;;;4995397;28;20122;-58
2021/12/02 03:58:26;;;;;;;0.73;0.73;;;;;;;;;;5001528;28;20038;-58
2021/12/02 04:00:52;;;;;;;4.85;1.13;;;;;;;;;;5001401;28;20458;-58
2021/12/02 04:03:17;;;;;;;0.90;0.80;;;;;;;;;;5000441;28;20057;-59
2021/12/02 04:05:42;;;;;;;1.67;0.80;;;;;;;;;;5003112;28;20125;-58
2021/12/02 04:08:11;;;;;;;1.85;0.90;;;;;;;;;;5001716;28;20038;-58
2021/12/02 04:10:37;;;;;;;1.85;1.25;;;;;;;;;;4999338;28;20117;-58
2021/12/02 04:13:20;;;;;;;2.28;1.30;;;;;;;;;;4998903;28;20030;-58
2021/12/02 04:15:50;;;;;;;2.03;0.93;;;;;;;;;;5000626;28;20034;-59
2021/12/02 04:18:17;;;;;;;1.08;0.98;;;;;;;;;;5001799;28;20133;-58
2021/12/02 04:20:42;;;;;;;1.65;1.25;;;;;;;;;;5002557;28;20033;-57
2021/12/02 04:23:08;;;;;;;3.00;1.10;;;;;;;;;;5002619;28;20076;-59
2021/12/02 04:25:33;;;;;;;2.55;1.20;;;;;;;;;;5000074;28;20104;-59
2021/12/02 04:27:58;;;;;;;1.35;1.05;;;;;;;;;;5007086;28;20057;-58
2021/12/02 04:30:26;;;;;;;3.97;1.20;;;;;;;;;;5002243;28;20079;-59
2021/12/02 04:32:53;;;;;;;3.72;1.67;;;;;;;;;;5004607;28;20099;-58
2021/12/02 04:35:18;;;;;;;2.55;1.48;;;;;;;;;;5006632;28;20362;-58
2021/12/02 04:37:45;;;;;;;1.23;1.13;;;;;;;;;;5006040;28;20259;-58
2021/12/02 04:40:15;;;;;;;4.82;1.50;;;;;;;;;;5001588;28;20030;-57
2021/12/02 04:42:41;;;;;;;2.75;1.42;;;;;;;;;;5006466;28;20109;-57
2021/12/02 04:45:07;;;;;;;1.40;1.30;;;;;;;;;;5001727;28;20152;-58
2021/12/02 04:47:32;;;;;;;1.83;1.65;;;;;;;;;;5003844;28;20095;-58
2021/12/02 04:49:57;;;;;;;1.80;1.40;;;;;;;;;;5002212;28;20064;-57
2021/12/02 04:52:23;;;;;;;3.00;1.30;;;;;;;;;;5004487;28;20030;-58
2021/12/02 04:54:48;;;;;;;3.15;1.40;;;;;;;;;;5003916;28;20115;-58
2021/12/02 04:57:14;;;;;;;2.75;1.60;;;;;;;;;;4999854;28;20034;-57
2021/12/02 04:59:39;;;;;;;1.27;1.10;;;;;;;;;;4997202;28;20029;-57
2021/12/02 05:02:05;;;;;;;3.25;1.60;;;;;;;;;;4998949;28;20030;-58
2021/12/02 05:04:30;;;;;;;1.30;1.20;;;;;;;;;;4999022;28;20097;-57
2021/12/02 05:06:56;;;;;;;2.42;1.17;;;;;;;;;;5003241;28;20038;-58
2021/12/02 05:09:21;;;;;;;2.40;1.02;;;;;;;;;;5001359;28;20030;-58
2021/12/02 05:11:47;;;;;;;1.42;1.10;;;;;;;;;;4997313;28;20038;-57
2021/12/02 05:14:12;;;;;;;2.05;1.25;;;;;;;;;;5004150;28;20025;-57
2021/12/02 05:16:39;;;;;;;2.45;1.20;;;;;;;;;;5003111;28;20033;-58
2021/12/02 05:19:04;;;;;;;1.23;0.90;;;;;;;;;;4996505;28;20064;-58
2021/12/02 05:21:30;;;;;;;2.03;1.23;;;;;;;;;;4999827;28;20054;-58
2021/12/02 05:23:55;;;;;;;3.00;1.33;;;;;;;;;;5000919;28;20034;-57
2021/12/02 05:26:24;;;;;;;2.10;1.10;;;;;;;;;;5001470;28;20072;-59
2021/12/02 05:28:51;;;;;;;2.00;1.33;;;;;;;;;;4999772;28;20092;-58
2021/12/02 05:31:17;;;;;;;3.65;1.83;;;;;;;;;;5000550;28;20272;-58
2021/12/02 05:33:43;;;;;;;4.05;1.25;;;;;;;;;;5000247;28;20500;-58
2021/12/02 05:36:08;;;;;;;1.48;1.23;;;;;;;;;;5002342;28;20072;-58
2021/12/02 05:38:35;;;;;;;3.78;1.15;;;;;;;;;;4998635;28;20461;-58
2021/12/02 05:41:00;;;;;;;2.20;1.50;;;;;;;;;;5000770;28;20036;-58
2021/12/02 05:43:26;;;;;;;3.38;2.05;;;;;;;;;;4999347;28;20018;-57
2021/12/02 05:45:52;;;;;;;2.33;1.70;;;;;;;;;;5003323;28;20040;-58
2021/12/02 05:48:17;;;;;;;7.00;3.20;;;;;;;;;;5000279;28;20038;-57
2021/12/02 05:50:43;;;;;;;3.53;2.03;;;;;;;;;;5000550;28;20033;-58
2021/12/02 05:53:08;;;;;;;2.30;1.23;;;;;;;;;;5000232;28;20528;-59
2021/12/02 05:55:34;;;;;;;2.03;1.20;;;;;;;;;;5003345;28;20033;-60
2021/12/02 05:57:59;;;;;;;1.27;1.08;;;;;;;;;;5001443;28;20026;-59
2021/12/02 06:00:25;;;;;;;3.15;1.70;;;;;;;;;;4998500;28;20041;-60
2021/12/02 06:02:50;;;;;;;4.75;1.77;;;;;;;;;;5001380;28;20336;-59
2021/12/02 06:05:20;;;;;;;1.98;1.58;;;;;;;;;;5001825;28;20029;-58
2021/12/02 06:07:50;;;;;;;1.75;1.20;;;;;;;;;;4997573;28;20041;-59
2021/12/02 06:10:16;;;;;;;2.47;1.52;;;;;;;;;;4997738;28;20045;-59
2021/12/02 06:12:42;;;;;;;2.00;1.40;;;;;;;;;;4997800;28;20080;-58
2021/12/02 06:15:08;;;;;;;4.22;1.80;;;;;;;;;;4994442;28;20038;-60
2021/12/02 06:17:35;;;;;;;2.38;1.80;;;;;;;;;;4999072;28;20081;-59
2021/12/02 06:20:07;;;;;;;2.13;1.92;;;;;;;;;;4996980;28;20054;-60
2021/12/02 06:22:33;;;;;;;1.77;1.30;;;;;;;;;;4999093;28;20109;-59
2021/12/02 06:27:43;;;;;;;3.25;1.50;;;;;;;;;;4998851;28;20037;-59
2021/12/02 06:30:09;;;;;;;3.25;1.60;;;;;;;;;;4999033;28;20030;-60
2021/12/02 06:32:34;;;;;;;2.15;1.48;;;;;;;;;;5002671;28;20034;-58
2021/12/02 06:35:00;;;;;;;2.58;1.35;;;;;;;;;;5001139;28;20105;-58
2021/12/02 06:37:26;;;;;;;2.35;1.35;;;;;;;;;;5002428;28;20021;-59
2021/12/02 06:39:52;;;;;;;3.05;1.80;;;;;;;;;;5006500;28;20432;-59
2021/12/02 06:42:18;;;;;;;3.95;1.40;;;;;;;;;;5006576;28;20033;-59
2021/12/02 06:44:44;;;;;;;1.77;1.40;;;;;;;;;;5009144;28;20112;-59
2021/12/02 06:47:09;;;;;;;2.67;1.58;;;;;;;;;;5005888;28;20084;-59
2021/12/02 06:49:35;;;;;;;7.90;1.92;;;;;;;;;;5004392;28;20022;-59
2021/12/02 06:52:03;;;;;;;3.05;1.63;;;;;;;;;;5006991;28;20429;-58
2021/12/02 06:54:29;;;;;;;3.22;1.50;;;;;;;;;;5005171;28;20156;-59
2021/12/02 06:56:54;;;;;;;4.90;1.67;;;;;;;;;;4998571;28;20120;-59
2021/12/02 06:59:20;;;;;;;4.10;1.77;;;;;;;;;;5002838;28;20018;-60
2021/12/02 07:01:46;;;;;;;5.47;3.50;;;;;;;;;;5010044;28;20029;-59
2021/12/02 07:04:12;;;;;;;11.07;3.60;;;;;;;;;;5003874;28;20022;-59
2021/12/02 07:06:39;;;;;;;4.97;3.10;;;;;;;;;;5003380;28;20080;-58
2021/12/02 07:09:05;;;;;;;8.48;3.53;;;;;;;;;;5009049;28;20038;-60
2021/12/02 07:11:31;;;;;;;8.85;3.20;;;;;;;;;;5003500;28;20034;-58
2021/12/02 07:14:01;;;;;;;5.50;2.97;;;;;;;;;;5007261;28;20049;-60
2021/12/02 07:16:26;;;;;;;7.97;3.45;;;;;;;;;;5009487;28;20045;-58
2021/12/02 07:18:55;;;;;;;7.05;3.42;;;;;;;;;;5001861;28;20157;-59
2021/12/02 07:21:20;;;;;;;5.18;3.17;;;;;;;;;;5007198;28;20026;-58
2021/12/02 07:23:46;;;;;;;7.70;3.50;;;;;;;;;;5003098;28;20385;-58
2021/12/02 07:26:11;;;;;;;8.00;3.42;;;;;;;;;;5001520;28;20029;-59
2021/12/02 07:28:36;;;;;;;4.82;2.70;;;;;;;;;;5004286;28;20034;-59
2021/12/02 07:31:05;;;;;;;5.47;3.28;;;;;;;;;;5006041;28;20094;-58
2021/12/02 07:33:36;;;;;;;3.80;2.90;;;;;;;;;;5007193;28;20040;-58
2021/12/02 07:36:02;;;;;;;4.47;3.60;;;;;;;;;;5003064;28;20072;-58
2021/12/02 07:38:28;;;;;;;4.68;3.17;;;;;;;;;;5005707;28;20040;-59
2021/12/02 07:40:53;;;;;;;5.03;3.53;;;;;;;;;;5008368;28;20026;-59
2021/12/02 07:43:21;;;;;;;4.88;2.40;;;;;;;;;;5008768;28;20523;-58
2021/12/02 07:45:46;;;;;;;4.85;2.70;;;;;;;;;;5003081;28;20113;-59
2021/12/02 07:48:14;;;;;;;5.13;1.98;;;;;;;;;;5010165;28;20118;-58
2021/12/02 07:50:39;;;;;;;6.25;2.72;;;;;;;;;;5002190;28;20060;-58
2021/12/02 07:53:07;;;;;;;3.60;1.70;;;;;;;;;;5000827;28;20076;-58
2021/12/02 07:55:36;;;;;;;3.75;1.60;;;;;;;;;;5004154;28;20107;-58
2021/12/02 07:58:03;;;;;;;;;;;;;;;;;;5004315;28;20393;-58
2021/12/02 08:00:28;;;;;;;2.92;1.83;;;;;;;;;;5001107;28;19925;-59
2021/12/02 08:02:55;;;;;;;4.90;1.80;;;;;;;;;;5002279;28;20021;-59
2021/12/02 08:05:24;;;;;;;8.32;4.15;;;;;;;;;;5003786;28;20022;-58
2021/12/02 08:07:51;;;;;;;4.05;2.00;;;;;;;;;;4998202;28;20473;-59
2021/12/02 08:10:17;;;;;;;2.42;1.83;;;;;;;;;;5002033;28;20381;-58
2021/12/02 08:12:48;;;;;;;3.05;1.88;;;;;;;;;;5004487;28;20113;-57
2021/12/02 08:15:32;;;;;;;4.20;2.25;;;;;;;;;;5001253;28;20038;-59
2021/12/02 08:17:59;;;;;;;4.13;2.05;;;;;;;;;;5000335;28;20100;-58
2021/12/02 08:20:27;;;;;;;6.03;2.40;;;;;;;;;;4997289;28;20117;-57
2021/12/02 08:22:53;;;;;;;3.55;2.28;;;;;;;;;;5001476;28;20076;-57
2021/12/02 08:25:20;;;;;;;6.20;2.10;;;;;;;;;;4999006;28;20127;-58
2021/12/02 08:27:46;;;;;;;3.63;2.03;;;;;;;;;;4997814;28;20053;-58
2021/12/02 08:30:14;;;;;;;2.47;1.60;;;;;;;;;;5001389;28;20133;-58
2021/12/02 08:32:42;;;;;;;3.15;1.90;;;;;;;;;;5003214;28;20030;-58
2021/12/02 08:35:09;;;;;;;2.80;1.55;;;;;;;;;;4999993;28;20276;-58
2021/12/02 08:37:38;;;;;;;2.50;1.35;;;;;;;;;;5004274;28;20033;-58
2021/12/02 08:40:04;;;;;;;3.75;1.88;;;;;;;;;;4996833;28;20036;-58
2021/12/02 08:42:33;;;;;;;3.65;2.40;;;;;;;;;;4999076;28;20512;-59
2021/12/02 08:45:00;;;;;;;4.45;2.10;;;;;;;;;;5002267;28;20430;-58
2021/12/02 08:47:28;;;;;;;2.10;1.63;;;;;;;;;;5005446;28;20092;-59
2021/12/02 08:49:55;;;;;;;2.67;1.83;;;;;;;;;;4998175;28;20487;-59
2021/12/02 08:52:22;;;;;;;2.50;1.67;;;;;;;;;;5001357;28;20038;-58
2021/12/02 08:54:49;;;;;;;1.92;1.13;;;;;;;;;;5003894;28;20473;-58
2021/12/02 08:57:17;;;;;;;4.22;1.20;;;;;;;;;;4999276;28;20057;-58
2021/12/02 08:59:43;;;;;;;3.50;1.70;;;;;;;;;;4996063;28;20030;-57
2021/12/02 09:02:09;;;;;;;6.57;1.40;;;;;;;;;;4998658;28;20149;-58
2021/12/02 09:04:34;;;;;;;1.33;1.20;;;;;;;;;;4999819;28;20117;-58
2021/12/02 09:06:59;;;;;;;1.25;1.15;;;;;;;;;;5000659;28;20034;-57
2021/12/02 09:09:26;;;;;;;2.75;1.52;;;;;;;;;;4999141;28;20121;-56
2021/12/02 09:11:54;;;;;;;2.15;1.02;;;;;;;;;;4995073;28;20492;-57
2021/12/02 09:14:19;;;;;;;2.30;1.80;;;;;;;;;;4995184;28;20521;-58
2021/12/02 09:16:45;;;;;;;3.05;1.30;;;;;;;;;;4996694;28;20252;-58
2021/12/02 09:19:10;;;;;;;3.65;2.15;;;;;;;;;;5003050;28;20022;-58
2021/12/02 09:21:36;;;;;;;4.78;1.35;;;;;;;;;;4999282;28;20361;-56
2021/12/02 09:24:01;;;;;;;2.22;1.20;;;;;;;;;;4999488;28;20149;-58
2021/12/02 09:26:27;;;;;;;1.65;1.27;;;;;;;;;;5000751;28;20241;-59
2021/12/02 09:28:53;;;;;;;1.25;1.15;;;;;;;;;;4999680;28;20033;-58
2021/12/02 09:31:20;;;;;;;2.85;1.23;;;;;;;;;;4999019;28;20045;-58
2021/12/02 09:33:46;;;;;;;2.00;1.10;;;;;;;;;;5000634;28;20404;-58
2021/12/02 09:36:12;;;;;;;3.78;1.90;;;;;;;;;;5002257;28;20018;-58
2021/12/02 09:38:38;;;;;;;2.78;1.67;;;;;;;;;;5001281;28;20457;-58
2021/12/02 09:41:04;;;;;;;1.70;1.40;;;;;;;;;;4997334;28;20113;-57
2021/12/02 09:43:30;;;;;;;2.90;2.10;;;;;;;;;;5000793;28;20041;-58
2021/12/02 09:45:55;;;;;;;3.30;1.70;;;;;;;;;;4994781;28;20046;-57
2021/12/02 09:48:21;;;;;;;2.15;1.95;;;;;;;;;;4997754;28;20088;-58
2021/12/02 09:50:52;;;;;;;2.47;1.70;;;;;;;;;;5003114;28;20034;-58
2021/12/02 09:53:22;;;;;;;2.75;1.67;;;;;;;;;;5000210;28;20129;-58
2021/12/02 09:58:22;;;;;;;4.70;2.58;;;;;;;;;;4997992;28;20065;-58
2021/12/02 10:01:05;;;;;;;4.50;2.05;;;;;;;;;;5000834;28;20041;-57
2021/12/02 10:03:33;;;;;;;6.60;3.13;;;;;;;;;;4997184;28;20032;-57
2021/12/02 10:06:06;;;;;;;2.47;1.80;;;;;;;;;;4998730;28;20396;-57
2021/12/02 10:08:47;;;;;;;2.50;1.88;;;;;;;;;;5003734;28;20045;-56
2021/12/02 10:11:33;;;;;;;3.65;1.80;;;;;;;;;;5004792;28;20194;-59
2021/12/02 10:14:12;;;;;;;5.05;2.05;;;;;;;;;;4993448;28;20026;-59
2021/12/02 10:16:42;;;;;;;3.28;1.80;;;;;;;;;;4999377;28;20029;-58
2021/12/02 10:19:11;;;;;;;;;;;;;;;;;;5001783;28;20026;-56
2021/12/02 10:21:53;;;;;;;;;;;;;;;;;;5001054;28;19917;-58
2021/12/02 10:24:25;;;;;;;4.25;2.40;;;;;;;;;;4999472;28;19918;-58
2021/12/02 10:26:58;;;;;;;3.28;1.90;;;;;;;;;;4999045;28;20057;-58
2021/12/02 10:29:33;;;;;;;2.78;2.10;;;;;;;;;;4998132;28;20061;-58
2021/12/02 10:32:10;;;;;;;3.60;2.15;;;;;;;;;;5000295;28;20058;-58
2021/12/02 10:34:53;;;;;;;2.38;1.98;;;;;;;;;;5002263;28;20121;-58
2021/12/02 10:37:22;;;;;;;5.18;2.20;;;;;;;;;;4999292;28;20031;-58
2021/12/02 10:39:54;;;;;;;4.13;2.43;;;;;;;;;;4999940;28;20392;-59
2021/12/02 10:42:21;;;;;;;4.93;2.58;;;;;;;;;;5002941;28;20475;-58
2021/12/02 10:44:46;;;;;;;3.63;2.05;;;;;;;;;;5000001;28;20034;-58
2021/12/02 10:47:14;;;;;;;4.30;2.10;;;;;;;;;;4997891;28;20393;-58
2021/12/02 10:49:39;;;;;;;5.88;2.30;;;;;;;;;;5000148;28;20030;-58
2021/12/02 10:52:06;;;;;;;6.75;3.45;;;;;;;;;;4993537;28;20038;-57
2021/12/02 10:54:37;;;;;;;6.03;2.70;;;;;;;;;;4997896;28;20048;-59
2021/12/02 10:57:08;;;;;;;5.57;2.63;;;;;;;;;;5000213;28;20029;-58
2021/12/02 10:59:44;;;;;;;3.10;2.00;;;;;;;;;;4997485;28;20030;-58
2021/12/02 11:02:22;;;;;;;4.15;2.60;;;;;;;;;;4995350;28;20030;-58
2021/12/02 11:04:58;;;;;;;4.80;2.70;;;;;;;;;;4997118;28;20030;-59
2021/12/02 11:07:30;;;;;;;3.90;2.00;;;;;;;;;;4999897;28;20038;-60
2021/12/02 11:09:58;;;;;;;2.42;1.75;;;;;;;;;;4996002;28;20037;-60
2021/12/02 11:12:35;;;;;;;3.35;2.28;;;;;;;;;;4998230;28;20038;-60
2021/12/02 11:15:01;;;;;;;3.75;2.10;;;;;;;;;;5000824;28;20049;-58
2021/12/02 11:17:30;;;;;;;4.57;1.98;;;;;;;;;;4992417;28;20105;-59
2021/12/02 11:19:57;;;;;;;3.72;2.20;;;;;;;;;;4997806;28;20076;-59
2021/12/02 11:22:24;;;;;;;1.40;1.30;;;;;;;;;;4996900;28;20030;-60
2021/12/02 11:24:51;;;;;;;2.30;1.50;;;;;;;;;;5007158;28;20100;-60
2021/12/02 11:27:22;;;;;;;2.25;1.48;;;;;;;;;;5002172;28;20022;-59
2021/12/02 11:29:58;;;;;;;3.30;1.65;;;;;;;;;;5001764;28;20061;-58
2021/12/02 11:32:23;;;;;;;1.85;1.50;;;;;;;;;;5002551;28;20509;-58
2021/12/02 11:35:04;;;;;;;2.53;1.67;;;;;;;;;;5003634;28;20018;-59
2021/12/02 11:37:29;;;;;;;1.88;1.40;;;;;;;;;;4999875;28;20057;-60
2021/12/02 11:39:58;;;;;;;2.15;1.30;;;;;;;;;;5003594;28;20057;-60
2021/12/02 11:42:24;;;;;;;2.22;1.60;;;;;;;;;;5004930;28;20028;-57
2021/12/02 11:44:50;;;;;;;4.82;1.85;;;;;;;;;;5003397;28;20084;-61
2021/12/02 11:47:16;;;;;;;6.50;3.20;;;;;;;;;;4999460;28;20026;-61
2021/12/02 11:49:42;;;;;;;5.10;2.67;;;;;;;;;;5005727;28;20045;-60
2021/12/02 11:52:10;;;;;;;5.00;3.00;;;;;;;;;;5005095;28;20030;-60
2021/12/02 11:54:38;;;;;;;3.00;2.15;;;;;;;;;;4998139;28;20026;-60
2021/12/02 11:57:04;;;;;;;2.20;1.85;;;;;;;;;;5002799;28;20068;-60
2021/12/02 11:59:29;;;;;;;3.30;2.35;;;;;;;;;;4998341;28;20470;-58
2021/12/02 12:01:59;;;;;;;3.13;2.30;;;;;;;;;;5002496;28;20038;-59
2021/12/02 12:04:24;;;;;;;2.72;2.10;;;;;;;;;;5002209;28;20026;-60
2021/12/02 12:07:09;;;;;;;3.08;2.38;;;;;;;;;;5006324;28;20504;-60
2021/12/02 12:09:34;;;;;;;3.80;2.40;;;;;;;;;;4999025;28;20021;-60
2021/12/02 12:12:00;;;;;;;9.88;3.00;;;;;;;;;;5000779;28;20112;-60
2021/12/02 12:14:39;;;;;;;6.45;1.90;;;;;;;;;;5005257;28;20518;-60
2021/12/02 12:17:10;;;;;;;3.15;1.60;;;;;;;;;;5001317;28;20040;-59
2021/12/02 12:19:44;;;;;;;2.55;1.88;;;;;;;;;;5000619;28;20033;-59
2021/12/02 12:22:24;;;;;;;2.78;1.63;;;;;;;;;;4999317;28;20084;-59
2021/12/02 12:24:49;;;;;;;4.50;2.15;;;;;;;;;;4999566;28;20057;-59
2021/12/02 12:27:19;;;;;;;2.10;1.50;;;;;;;;;;4997042;28;20129;-59
2021/12/02 12:30:09;;;;;;;3.25;1.42;;;;;;;;;;4997724;28;20152;-59
2021/12/02 12:36:08;;;;;;;2.70;1.58;;;;;;;;;;4999273;28;19921;-59
2021/12/02 12:38:03;;;;;;;2.70;1.88;;;;;;;;;;4991696;28;20034;-59
2021/12/02 12:40:40;;;;;;;1.85;1.73;;;;;;;;;;4995549;28;20495;-59
2021/12/02 12:43:06;;;;;;;4.03;1.80;;;;;;;;;;4994783;28;20029;-59
2021/12/02 12:45:40;;;;;;;1.73;1.48;;;;;;;;;;5003083;28;20048;-59
2021/12/02 12:48:08;;;;;;;3.90;1.58;;;;;;;;;;5000642;28;20469;-59
2021/12/02 12:50:46;;;;;;;1.30;1.20;;;;;;;;;;4998221;28;20109;-59
2021/12/02 12:53:34;;;;;;;2.42;1.85;;;;;;;;;;5002973;28;20341;-59
2021/12/02 12:56:01;;;;;;;5.15;2.67;;;;;;;;;;5002610;28;20046;-59
2021/12/02 12:58:27;;;;;;;2.20;2.00;;;;;;;;;;4997692;28;20030;-60
2021/12/02 13:01:05;;;;;;;3.42;2.13;;;;;;;;;;5001915;28;20443;-59
2021/12/02 13:03:44;;;;;;;3.95;2.50;;;;;;;;;;4998384;28;20105;-59
2021/12/02 13:09:06;;;;;;;1.98;1.45;;;;;;;;;;5000208;28;20451;-59
2021/12/02 13:11:34;;;;;;;3.97;1.80;;;;;;;;;;4999386;28;20113;-59
2021/12/02 13:14:04;;;;;;;3.75;1.80;;;;;;;;;;4996854;28;20031;-58
2021/12/02 13:16:29;;;;;;;2.90;1.92;;;;;;;;;;4996774;28;20029;-58
2021/12/02 13:18:55;;;;;;;5.13;2.03;;;;;;;;;;4999516;28;20034;-60
2021/12/02 13:21:30;;;;;;;3.50;2.38;;;;;;;;;;4998788;28;20044;-59
2021/12/02 13:24:04;;;;;;;3.30;2.33;;;;;;;;;;5004902;28;20030;-59
2021/12/02 13:26:34;;;;;;;4.82;2.58;;;;;;;;;;4997505;28;20026;-59
2021/12/02 13:29:18;;;;;;;;;;;;;;;;;;4996845;28;20022;-60
2021/12/02 13:32:06;;;;;;;4.03;2.00;;;;;;;;;;4999525;28;19964;-59
2021/12/02 13:34:33;;;;;;;2.00;1.80;;;;;;;;;;5000897;28;20481;-60
2021/12/02 13:36:58;;;;;;;3.97;2.35;;;;;;;;;;4996799;28;20407;-59
2021/12/02 13:39:26;;;;;;;4.65;3.00;;;;;;;;;;4999349;28;20029;-58
2021/12/02 13:41:55;;;;;;;5.25;2.88;;;;;;;;;;4996297;28;20030;-58
2021/12/02 13:44:29;;;;;;;5.75;2.67;;;;;;;;;;5000379;28;20376;-58
2021/12/02 13:47:01;;;;;;;5.80;3.40;;;;;;;;;;4996758;28;20086;-60
2021/12/02 13:49:35;;;;;;;10.38;4.40;;;;;;;;;;4993232;28;20084;-58
2021/12/02 13:54:55;;;;;;;5.45;3.20;;;;;;;;;;4998012;28;20700;-58
2021/12/02 14:00:20;;;;;;;9.40;4.38;;;;;;;;;;4998864;28;20151;-58
2021/12/02 14:03:05;;;;;;;10.57;3.42;;;;;;;;;;4998500;28;20049;-58
2021/12/02 14:05:36;;;;;;;11.18;4.15;;;;;;;;;;5000801;28;20030;-58
2021/12/02 14:08:05;;;;;;;12.68;3.70;;;;;;;;;;5001145;28;20048;-56
2021/12/02 14:10:33;;;;;;;8.00;3.10;;;;;;;;;;4997631;28;20473;-60
2021/12/02 14:13:03;;;;;;;9.45;4.18;;;;;;;;;;5002459;28;20105;-58
2021/12/02 14:15:30;;;;;;;;;;;;;;;;;;4999507;28;20029;-59
2021/12/02 14:18:01;;;;;;;9.25;3.42;;;;;;;;;;4994038;28;19921;-59
2021/12/02 14:20:56;;;;;;;5.47;2.53;;;;;;;;;;4992734;28;20034;-58
2021/12/02 14:23:42;;;;;;;6.43;3.00;;;;;;;;;;4997104;28;20374;-57
2021/12/02 14:26:11;;;;;;;5.07;2.60;;;;;;;;;;5000070;28;20029;-58
2021/12/02 14:28:42;;;;;;;4.03;2.35;;;;;;;;;;4996876;28;20025;-58
2021/12/02 14:31:21;;;;;;;8.10;2.88;;;;;;;;;;5000105;28;20033;-59
2021/12/02 14:33:48;;;;;;;7.40;3.23;;;;;;;;;;5000360;28;20042;-59
2021/12/02 14:36:16;;;;;;;6.20;2.63;;;;;;;;;;4998953;28;20029;-59
2021/12/02 14:38:45;;;;;;;7.35;2.47;;;;;;;;;;4997882;28;20040;-58
2021/12/02 14:41:19;;;;;;;6.18;2.83;;;;;;;;;;5002880;28;20030;-59
2021/12/02 14:43:48;;;;;;;14.75;3.83;;;;;;;;;;5001851;28;20414;-60
2021/12/02 14:46:18;;;;;;;17.33;4.80;;;;;;;;;;5001285;28;20152;-59
2021/12/02 14:48:44;;;;;;;;;;;;;;;;;;4999378;28;20034;-59
2021/12/02 14:51:13;;;;;;;8.30;3.88;;;;;;;;;;4999825;28;20016;-58
2021/12/02 14:53:47;;;;;;;9.07;3.60;;;;;;;;;;4999667;28;20030;-59
2021/12/02 14:56:30;;;;;;;6.65;3.13;;;;;;;;;;4999353;28;20053;-59
2021/12/02 14:59:14;;;;;;;5.80;2.97;;;;;;;;;;4999458;28;20534;-59
2021/12/02 15:02:38;;;;;;;4.07;2.33;;;;;;;;;;5002713;28;20057;-58
2021/12/02 15:05:11;;;;;;;6.38;2.15;;;;;;;;;;4982898;28;20111;-59
2021/12/02 15:07:45;;;;;;;4.05;2.20;;;;;;;;;;5000754;28;20037;-59
2021/12/02 15:10:17;;;;;;;4.78;2.33;;;;;;;;;;4999701;28;20041;-59
2021/12/02 15:12:42;;;;;;;6.30;2.90;;;;;;;;;;4997675;28;20334;-60
2021/12/02 15:15:11;;;;;;;6.13;3.45;;;;;;;;;;5004919;28;20127;-59
2021/12/02 15:17:44;;;;;;;7.00;3.78;;;;;;;;;;5000092;28;20033;-59
2021/12/02 15:20:17;;;;;;;4.20;2.90;;;;;;;;;;5000759;28;20026;-59
2021/12/02 15:22:54;;;;;;;4.75;2.90;;;;;;;;;;5004510;28;20025;-59
2021/12/02 15:25:27;;;;;;;8.68;2.80;;;;;;;;;;4999210;28;20088;-60